createdAt,value
2023-05-22T00:00:26.823Z,13.30
2023-05-22T00:02:54.359Z,13.15
2023-05-22T00:05:21.801Z,13.01
2023-05-22T00:07:49.283Z,12.90
2023-05-22T00:10:16.524Z,12.79
2023-05-22T00:12:43.723Z,12.70
2023-05-22T00:15:11.806Z,12.56
2023-05-22T00:17:39.613Z,13.05
2023-05-22T00:20:08.928Z,13.69
2023-05-22T00:22:36.664Z,13.82
2023-05-22T00:25:04.611Z,13.69
2023-05-22T00:27:33.249Z,13.50
2023-05-22T00:30:00.363Z,13.28
2023-05-22T00:32:27.724Z,13.09
2023-05-22T00:34:55.380Z,12.94
2023-05-22T00:37:22.402Z,12.80
2023-05-22T00:39:49.710Z,12.62
2023-05-22T00:42:17.044Z,12.50
2023-05-22T00:44:44.264Z,12.39
2023-05-22T00:47:11.661Z,12.25
2023-05-22T00:49:39.868Z,12.74
2023-05-22T00:52:07.175Z,13.40
2023-05-22T00:54:34.182Z,13.53
2023-05-22T00:57:01.612Z,13.42
2023-05-22T00:59:29.304Z,13.23
2023-05-22T01:01:57.418Z,13.03
2023-05-22T01:04:24.976Z,12.84
2023-05-22T01:06:53.985Z,12.65
2023-05-22T01:09:21.017Z,12.45
2023-05-22T01:12:07.373Z,12.29
2023-05-22T01:15:13.606Z,12.16
2023-05-22T01:17:48.049Z,12.03
2023-05-22T01:20:33.704Z,12.85
2023-05-22T01:23:28.986Z,13.55
2023-05-22T01:26:34.739Z,13.56
2023-05-22T01:29:42.291Z,13.28
2023-05-22T01:32:11.139Z,12.99
2023-05-22T01:34:38.611Z,12.76
2023-05-22T01:37:05.633Z,12.55
2023-05-22T01:39:32.656Z,12.38
2023-05-22T01:41:59.708Z,12.23
2023-05-22T01:44:27.083Z,12.10
2023-05-22T01:46:56.437Z,11.98
2023-05-22T01:49:23.840Z,11.84
2023-05-22T01:51:53.653Z,12.35
2023-05-22T01:54:37.651Z,13.00
2023-05-22T01:57:25.016Z,13.09
2023-05-22T02:00:09.947Z,12.89
2023-05-22T02:02:47.994Z,12.60
2023-05-22T02:05:18.843Z,12.34
2023-05-22T02:07:46.345Z,12.11
2023-05-22T02:10:13.393Z,11.92
2023-05-22T02:12:40.587Z,11.73
2023-05-22T02:15:08.742Z,11.58
2023-05-22T02:17:42.689Z,12.07
2023-05-22T02:20:14.450Z,12.73
2023-05-22T02:22:47.388Z,12.85
2023-05-22T02:25:14.858Z,12.69
2023-05-22T02:27:43.089Z,12.46
2023-05-22T02:30:12.008Z,12.22
2023-05-22T02:32:40.570Z,12.00
2023-05-22T02:35:09.745Z,11.82
2023-05-22T02:37:37.220Z,11.67
2023-05-22T02:40:07.437Z,11.50
2023-05-22T02:42:35.934Z,12.01
2023-05-22T02:45:03.250Z,12.64
2023-05-22T02:47:30.907Z,12.74
2023-05-22T02:49:58.427Z,12.59
2023-05-22T02:52:25.463Z,12.39
2023-05-22T02:54:52.602Z,12.20
2023-05-22T02:57:20.038Z,12.03
2023-05-22T02:59:47.133Z,11.89
2023-05-22T03:02:15.554Z,11.75
2023-05-22T03:04:42.837Z,12.23
2023-05-22T03:07:10.183Z,12.89
2023-05-22T03:09:37.406Z,13.08
2023-05-22T03:12:07.838Z,13.00
2023-05-22T03:14:35.316Z,12.84
2023-05-22T03:17:02.641Z,12.67
2023-05-22T03:19:30.285Z,12.52
2023-05-22T03:21:58.254Z,12.41
2023-05-22T03:24:26.269Z,12.31
2023-05-22T03:26:53.342Z,12.24
2023-05-22T03:29:26.660Z,12.15
2023-05-22T03:31:54.566Z,12.75
2023-05-22T03:34:27.574Z,13.50
2023-05-22T03:36:55.064Z,13.75
2023-05-22T03:39:22.107Z,13.73
2023-05-22T03:41:54.885Z,13.61
2023-05-22T03:44:24.497Z,13.47
2023-05-22T03:46:52.065Z,13.37
2023-05-22T03:49:19.122Z,13.30
2023-05-22T03:51:46.160Z,13.26
2023-05-22T03:54:13.325Z,13.24
2023-05-22T03:56:41.944Z,13.21
2023-05-22T03:59:08.958Z,13.19
2023-05-22T04:01:39.485Z,13.19
2023-05-22T04:04:06.772Z,13.86
2023-05-22T04:06:34.310Z,14.63
2023-05-22T04:09:01.995Z,14.91
2023-05-22T04:11:32.339Z,14.94
2023-05-22T04:14:03.314Z,14.87
2023-05-22T04:16:30.652Z,14.79
2023-05-22T04:18:58.175Z,14.72
2023-05-22T04:21:25.353Z,14.74
2023-05-22T04:23:52.463Z,14.79
2023-05-22T04:26:20.840Z,14.83
2023-05-22T04:28:48.008Z,14.89
2023-05-22T04:31:15.242Z,15.03
2023-05-22T04:33:42.911Z,15.20
2023-05-22T04:36:12.470Z,15.38
2023-05-22T04:38:41.477Z,15.48
2023-05-22T04:41:13.573Z,15.52
2023-05-22T04:43:40.859Z,15.56
2023-05-22T04:46:09.057Z,15.63
2023-05-22T04:48:37.015Z,15.79
2023-05-22T04:51:04.804Z,15.98
2023-05-22T04:53:33.530Z,16.14
2023-05-22T04:56:00.913Z,16.37
2023-05-22T04:58:28.434Z,16.59
2023-05-22T05:00:58.380Z,16.87
2023-05-22T05:03:28.949Z,17.13
2023-05-22T05:05:56.928Z,17.40
2023-05-22T05:08:23.958Z,17.76
2023-05-22T05:10:51.049Z,18.21
2023-05-22T05:13:18.220Z,18.72
2023-05-22T05:15:46.016Z,19.27
2023-05-22T05:18:13.620Z,19.75
2023-05-22T05:20:42.969Z,20.15
2023-05-22T05:23:10.513Z,20.56
2023-05-22T05:25:38.832Z,20.96
2023-05-22T05:28:10.857Z,21.27
2023-05-22T05:30:39.633Z,21.40
2023-05-22T05:33:29.991Z,21.50
2023-05-22T05:36:02.816Z,21.59
2023-05-22T05:38:30.554Z,21.69
2023-05-22T05:40:57.661Z,21.82
2023-05-22T05:43:25.634Z,21.93
2023-05-22T05:45:55.459Z,22.02
2023-05-22T05:48:23.013Z,22.14
2023-05-22T05:50:50.134Z,22.32
2023-05-22T05:53:17.408Z,22.60
2023-05-22T05:55:49.532Z,22.86
2023-05-22T05:58:17.774Z,23.10
2023-05-22T06:01:13.114Z,23.34
2023-05-22T06:03:40.423Z,23.51
2023-05-22T06:06:17.771Z,23.73
2023-05-22T06:09:08.393Z,23.87
2023-05-22T06:11:46.901Z,24.07
2023-05-22T06:14:14.328Z,24.33
2023-05-22T06:16:41.741Z,24.63
2023-05-22T06:19:09.099Z,24.91
2023-05-22T06:21:37.206Z,25.19
2023-05-22T06:24:04.509Z,25.46
2023-05-22T06:26:31.886Z,25.62
2023-05-22T06:28:58.856Z,25.63
2023-05-22T06:31:26.204Z,25.66
2023-05-22T06:33:55.429Z,25.82
2023-05-22T06:36:23.493Z,26.01
2023-05-22T06:38:55.141Z,26.21
2023-05-22T06:41:42.172Z,26.62
2023-05-22T06:44:10.443Z,26.76
2023-05-22T06:46:38.895Z,26.88
2023-05-22T06:49:06.617Z,27.07
2023-05-22T06:51:43.947Z,27.44
2023-05-22T06:54:13.874Z,27.66
2023-05-22T06:56:43.457Z,27.80
2023-05-22T06:59:15.278Z,28.03
2023-05-22T07:02:02.557Z,28.34
2023-05-22T07:04:50.031Z,28.41
2023-05-22T07:07:21.871Z,27.90
2023-05-22T07:09:49.665Z,27.62
2023-05-22T07:12:17.848Z,27.91
2023-05-22T07:14:45.400Z,28.42
2023-05-22T07:17:12.924Z,28.78
2023-05-22T07:19:43.036Z,29.02
2023-05-22T07:22:10.096Z,29.28
2023-05-22T07:24:38.564Z,28.98
2023-05-22T07:27:06.011Z,27.79
2023-05-22T07:29:33.566Z,27.90
2023-05-22T07:32:01.166Z,28.21
2023-05-22T07:34:33.184Z,28.57
2023-05-22T07:37:06.815Z,29.06
2023-05-22T07:39:34.595Z,29.69
2023-05-22T07:42:02.069Z,30.08
2023-05-22T07:44:29.807Z,30.56
2023-05-22T07:46:57.016Z,30.88
2023-05-22T07:49:25.770Z,30.91
2023-05-22T07:51:52.942Z,30.51
2023-05-22T07:54:21.000Z,29.89
2023-05-22T07:56:50.474Z,29.64
2023-05-22T07:59:19.892Z,29.82
2023-05-22T08:01:47.119Z,30.14
2023-05-22T08:04:14.429Z,30.34
2023-05-22T08:06:43.927Z,30.66
2023-05-22T08:09:11.007Z,30.99
2023-05-22T08:11:40.254Z,30.80
2023-05-22T08:14:07.856Z,30.42
2023-05-22T08:16:35.446Z,29.82
2023-05-22T08:19:02.761Z,29.48
2023-05-22T08:21:33.224Z,29.53
2023-05-22T08:24:01.280Z,30.00
2023-05-22T08:26:30.132Z,30.59
2023-05-22T08:28:59.639Z,31.15
2023-05-22T08:31:29.336Z,31.55
2023-05-22T08:34:02.497Z,31.54
2023-05-22T08:36:31.603Z,31.37
2023-05-22T08:38:58.638Z,31.27
2023-05-22T08:41:25.666Z,31.28
2023-05-22T08:43:53.213Z,31.14
2023-05-22T08:46:20.235Z,30.72
2023-05-22T08:48:47.932Z,30.52
2023-05-22T08:51:15.533Z,30.36
2023-05-22T08:53:43.013Z,30.08
2023-05-22T08:56:10.045Z,29.98
2023-05-22T08:58:37.729Z,30.17
2023-05-22T09:01:05.582Z,30.63
2023-05-22T09:03:33.412Z,30.81
2023-05-22T09:06:04.276Z,30.63
2023-05-22T09:08:33.382Z,30.46
2023-05-22T09:11:00.520Z,30.55
2023-05-22T09:13:31.535Z,30.71
2023-05-22T09:16:00.806Z,30.79
2023-05-22T09:18:28.996Z,30.58
2023-05-22T09:20:59.351Z,30.71
2023-05-22T13:43:28.499Z,25.63
2023-05-22T13:45:55.829Z,26.31
2023-05-22T13:48:23.421Z,26.39
2023-05-22T13:50:50.565Z,26.50
2023-05-22T13:53:18.495Z,26.58
2023-05-22T13:55:45.578Z,26.47
2023-05-22T13:58:12.667Z,26.39
2023-05-22T14:00:39.880Z,26.29
2023-05-22T14:03:07.129Z,26.30
2023-05-22T14:05:34.542Z,26.25
2023-05-22T14:08:01.753Z,26.26
2023-05-22T14:10:29.416Z,26.33
2023-05-22T14:12:56.604Z,26.39
2023-05-22T14:15:24.331Z,26.53
2023-05-22T14:17:51.439Z,26.60
2023-05-22T14:20:18.685Z,26.79
2023-05-22T14:22:57.210Z,26.88
2023-05-22T14:25:26.309Z,26.89
2023-05-22T14:27:53.650Z,26.89
2023-05-22T14:30:20.817Z,26.96
2023-05-22T14:32:48.899Z,27.11
2023-05-22T14:35:16.827Z,27.31
2023-05-22T14:37:44.097Z,27.33
2023-05-22T14:40:11.316Z,27.16
2023-05-22T14:42:39.019Z,27.01
2023-05-22T14:45:06.520Z,26.80
2023-05-22T14:47:34.263Z,26.62
2023-05-22T14:50:14.675Z,26.45
2023-05-22T14:52:46.518Z,26.37
2023-05-22T14:55:13.593Z,26.33
2023-05-22T14:57:40.532Z,26.46
2023-05-22T15:00:09.894Z,26.70
2023-05-22T15:02:39.281Z,26.89
2023-05-22T15:05:07.364Z,26.99
2023-05-22T15:07:43.912Z,27.14
2023-05-22T15:10:13.066Z,27.24
2023-05-22T15:12:40.968Z,27.30
2023-05-22T15:15:08.795Z,27.47
2023-05-22T15:17:36.324Z,27.62
2023-05-22T15:20:05.491Z,27.59
2023-05-22T15:22:33.355Z,27.53
2023-05-22T15:25:18.676Z,27.54
2023-05-22T15:27:45.929Z,27.58
2023-05-22T15:30:13.215Z,27.52
2023-05-22T15:32:40.671Z,27.54
2023-05-22T15:35:10.226Z,27.60
2023-05-22T15:37:38.188Z,27.54
2023-05-22T15:40:06.247Z,27.45
2023-05-22T15:42:33.772Z,27.32
2023-05-22T15:45:01.207Z,27.14
2023-05-22T15:47:29.241Z,27.08
2023-05-22T15:49:56.271Z,27.02
2023-05-22T15:52:24.654Z,26.92
2023-05-22T15:54:56.991Z,26.73
2023-05-22T15:57:26.392Z,26.60
2023-05-22T15:59:53.348Z,26.57
2023-05-22T16:02:20.299Z,26.53
2023-05-22T16:04:47.387Z,26.45
2023-05-22T16:07:14.625Z,26.43
2023-05-22T16:09:43.405Z,26.32
2023-05-22T16:12:12.998Z,26.28
2023-05-22T16:14:41.849Z,26.28
2023-05-22T16:17:08.961Z,26.18
2023-05-22T16:19:36.201Z,25.96
2023-05-22T16:22:03.862Z,25.88
2023-05-22T16:24:31.096Z,25.87
2023-05-22T16:26:59.280Z,25.88
2023-05-22T16:29:26.234Z,25.82
2023-05-22T16:31:53.322Z,25.73
2023-05-22T16:34:20.621Z,25.69
2023-05-22T16:36:47.666Z,25.54
2023-05-22T16:39:15.642Z,25.38
2023-05-22T16:41:42.744Z,25.27
2023-05-22T16:44:09.877Z,25.14
2023-05-22T16:46:36.916Z,24.95
2023-05-22T16:49:04.162Z,24.81
2023-05-22T16:51:31.443Z,24.66
2023-05-22T16:53:58.627Z,24.49
2023-05-22T16:56:26.127Z,24.37
2023-05-22T16:58:53.422Z,24.24
2023-05-22T17:01:22.072Z,24.12
2023-05-22T17:03:49.725Z,24.03
2023-05-22T17:06:19.454Z,23.92
2023-05-22T17:08:48.007Z,23.85
2023-05-22T17:11:14.972Z,23.74
2023-05-22T17:13:42.640Z,23.63
2023-05-22T17:16:09.808Z,23.53
2023-05-22T17:18:37.999Z,23.39
2023-05-22T17:21:05.273Z,23.29
2023-05-22T17:23:37.023Z,23.18
2023-05-22T17:26:04.587Z,23.05
2023-05-22T17:28:32.095Z,22.92
2023-05-22T17:30:59.457Z,22.79
2023-05-22T17:33:26.871Z,22.64
2023-05-22T17:35:54.867Z,22.50
2023-05-22T17:38:22.102Z,22.38
2023-05-22T17:40:49.548Z,22.23
2023-05-22T17:43:19.033Z,22.13
2023-05-22T17:45:55.210Z,22.01
2023-05-22T17:48:27.276Z,21.88
2023-05-22T17:50:54.835Z,21.73
2023-05-22T17:53:21.983Z,21.57
2023-05-22T17:55:49.998Z,21.36
2023-05-22T17:58:17.270Z,21.15
2023-05-22T18:00:45.761Z,20.96
2023-05-22T18:03:13.412Z,20.81
2023-05-22T18:05:41.403Z,20.66
2023-05-22T18:08:08.822Z,20.52
2023-05-22T18:10:38.378Z,20.39
2023-05-22T18:13:06.099Z,20.25
2023-05-22T18:15:33.493Z,20.07
2023-05-22T18:18:00.811Z,19.90
2023-05-22T18:20:29.302Z,19.77
2023-05-22T18:22:56.681Z,19.61
2023-05-22T18:25:23.837Z,19.43
2023-05-22T18:27:50.846Z,19.26
2023-05-22T18:30:18.068Z,19.12
2023-05-22T18:32:46.214Z,18.98
2023-05-22T18:35:13.393Z,18.85
2023-05-22T18:37:40.717Z,18.71
2023-05-22T18:40:09.579Z,18.59
2023-05-22T18:42:39.156Z,18.47
2023-05-22T18:45:08.968Z,18.35
2023-05-22T18:47:38.215Z,18.23
2023-05-22T18:50:05.960Z,18.14
2023-05-22T18:52:33.491Z,18.07
2023-05-22T18:55:00.571Z,17.98
2023-05-22T18:57:27.591Z,17.87
2023-05-22T18:59:55.901Z,17.76
2023-05-22T19:02:23.109Z,17.64
2023-05-22T19:04:50.641Z,17.54
2023-05-22T19:07:17.761Z,17.43
2023-05-22T19:09:44.888Z,17.33
2023-05-22T19:12:11.956Z,17.25
2023-05-22T19:14:39.983Z,17.16
2023-05-22T19:17:07.249Z,17.06
2023-05-22T19:19:34.474Z,16.99
2023-05-22T19:22:01.570Z,16.91
2023-05-22T19:24:28.989Z,16.82
2023-05-22T19:26:56.098Z,16.73
2023-05-22T19:29:23.544Z,16.65
2023-05-22T19:31:50.667Z,16.59
2023-05-22T19:34:17.715Z,16.53
2023-05-22T19:36:44.859Z,16.47
2023-05-22T19:39:12.162Z,16.42
2023-05-22T19:41:39.267Z,16.38
2023-05-22T19:44:07.130Z,16.33
2023-05-22T19:46:34.815Z,16.27
2023-05-22T19:49:04.913Z,16.21
2023-05-22T19:51:32.485Z,16.14
2023-05-22T19:53:59.805Z,16.08
2023-05-22T19:56:27.250Z,16.01
2023-05-22T19:58:54.310Z,15.94
2023-05-22T20:01:21.593Z,15.86
2023-05-22T20:03:49.886Z,15.79
2023-05-22T20:06:19.093Z,15.73
2023-05-22T20:08:46.382Z,15.69
2023-05-22T20:11:13.541Z,15.65
2023-05-22T20:13:40.811Z,15.62
2023-05-22T20:16:11.997Z,15.59
2023-05-22T20:18:41.090Z,15.55
2023-05-22T20:21:09.814Z,15.50
2023-05-22T20:23:37.316Z,15.44
2023-05-22T20:26:05.586Z,15.38
2023-05-22T20:28:32.659Z,15.34
2023-05-22T20:30:59.706Z,15.30
2023-05-22T20:33:27.883Z,15.25
2023-05-22T20:35:54.982Z,15.21
2023-05-22T20:38:22.628Z,15.17
2023-05-22T20:40:50.077Z,15.13
2023-05-22T20:43:18.660Z,15.08
2023-05-22T20:45:46.813Z,15.02
2023-05-22T20:48:15.082Z,14.97
2023-05-22T20:50:42.559Z,14.90
2023-05-22T20:53:09.778Z,14.82
2023-05-22T20:55:37.200Z,14.77
2023-05-22T20:58:04.341Z,14.75
2023-05-22T21:00:31.415Z,14.71
2023-05-22T21:02:59.691Z,14.68
2023-05-22T21:05:26.927Z,14.67
2023-05-22T21:07:55.715Z,14.63
2023-05-22T21:10:23.357Z,14.57
2023-05-22T21:12:50.696Z,14.53
2023-05-22T21:15:17.987Z,14.47
2023-05-22T21:17:45.628Z,14.40
2023-05-22T21:20:12.693Z,14.34
2023-05-22T21:22:39.739Z,14.27
2023-05-22T21:25:07.584Z,14.74
2023-05-22T21:27:34.637Z,15.38
2023-05-22T21:30:01.834Z,15.54
2023-05-22T21:32:31.007Z,15.44
2023-05-22T21:34:58.140Z,15.26
2023-05-22T21:37:25.727Z,15.07
2023-05-22T21:39:52.948Z,14.87
2023-05-22T21:42:21.344Z,14.70
2023-05-22T21:44:48.554Z,14.55
2023-05-22T21:47:15.610Z,14.43
2023-05-22T21:49:42.690Z,14.34
2023-05-22T21:52:09.953Z,14.25
2023-05-22T21:54:39.547Z,14.15
2023-05-22T21:57:07.069Z,14.07
2023-05-22T21:59:34.506Z,14.00
2023-05-22T22:02:01.724Z,13.92
2023-05-22T22:04:29.075Z,13.85
2023-05-22T22:06:56.220Z,13.77
2023-05-22T22:09:23.234Z,13.72
2023-05-22T22:11:50.805Z,13.67
2023-05-22T22:14:18.037Z,13.61
2023-05-22T22:16:45.605Z,14.19
2023-05-22T22:19:12.956Z,14.92
2023-05-22T22:21:40.126Z,15.11
2023-05-22T22:24:07.257Z,15.01
2023-05-22T22:26:35.717Z,14.80
2023-05-22T22:29:02.823Z,14.62
2023-05-22T22:31:30.071Z,14.45
2023-05-22T22:33:57.982Z,14.29
2023-05-22T22:36:25.097Z,14.15
2023-05-22T22:38:52.059Z,14.02
2023-05-22T22:41:19.182Z,13.90
2023-05-22T22:43:46.835Z,13.79
2023-05-22T22:46:14.175Z,13.69
2023-05-22T22:48:41.859Z,13.60
2023-05-22T22:51:09.890Z,13.52
2023-05-22T22:53:37.374Z,13.41
2023-05-22T22:56:04.561Z,13.93
2023-05-22T22:58:32.576Z,14.60
2023-05-22T23:00:59.776Z,14.75
2023-05-22T23:03:27.579Z,14.64
2023-05-22T23:05:54.647Z,14.44
2023-05-22T23:08:21.648Z,14.24
2023-05-22T23:10:48.727Z,14.03
2023-05-22T23:13:16.229Z,13.80
2023-05-22T23:15:43.689Z,13.62
2023-05-22T23:18:13.699Z,13.47
2023-05-22T23:20:40.960Z,13.32
2023-05-22T23:23:08.083Z,13.21
2023-05-22T23:25:35.172Z,13.11
2023-05-22T23:28:02.358Z,13.03
2023-05-22T23:30:30.175Z,12.92
2023-05-22T23:32:57.342Z,13.46
2023-05-22T23:35:24.520Z,14.14
2023-05-22T23:37:51.646Z,14.29
2023-05-22T23:40:18.866Z,14.19
2023-05-22T23:42:46.185Z,14.03
2023-05-22T23:45:13.377Z,13.85
2023-05-22T23:47:40.926Z,13.64
2023-05-22T23:50:11.224Z,13.44
2023-05-22T23:52:39.214Z,13.29
2023-05-22T23:55:07.075Z,13.16
2023-05-22T23:57:34.293Z,13.02
